KOJA

Thomas P Stafford Airport

Weatherford, Oklahoma, USA
METAR KOJA 211435Z AUTO 10007KT 10SM CLR 19/16 A3014 RMK AO2
Observed Flight Rules
May-21 @ 14:35 UTC (20 minutes ago) Visual Flight Rules
Wind Visibility Clouds
100° at 7 knots 10 miles
  • Clear skies
Temperatures Readings
Current 19°C / 66°F
Dewpoint 16°C / 61°F
Humidity 83%
Altimeter 30.14" Hg
Pressure 1021 hPa
Elevation 490
METAR KOJA 211435Z AUTO 10007KT 10SM CLR 19/16 A3014 RMK AO2
Observed Flight Rules
May-21 @ 14:35 UTC
(20 minutes ago)
VFR
Wind Visibility
100° at 7 knots 10 miles
Clouds
  • Clear skies
Temperature Dewpoint
19°C / 66°F 16°C / 61°F
Humidity Altimeter Pressure
83% 30.14" Hg 1021 hPa